Decoded Metar for LFQA (REIMS in FRANCE) (IATA:N/A) | Meteo·Mobile Aviation Weather
aviador You're here:

LFQA Decoded Metar

REIMS in FRANCE
Report Time2018-08-21 07:30:00
UTC Time2018-08-21 07:51:20
Flight Rules vfr VFR
Wind310° at 05 kt
W.Decomp.*RWY 25: 2.5 kt HW 4.3 kt RCW
W.Rank310° ranks 13
Current wind is below 310° avg. (6.3)
Visibility9999 m
Phenomena:N/A
Clouds:N/A
Expected CloudBase > 1,200 ft AGL from Temp-Dew spread
CeilingNone
Temp20°C (ISA +6)
Dew Point17°C (83% RH)
QNH1021 hPa
Density Alt958 ft
Elevation312 ft
Report Wrong Elevation
Raw Report
METAR LFQA 210730Z AUTO 31005KT 280V340 CAVOK 20/17 Q1021=

Extra information for LFQA:More info

Metar Taf Metar & Taf Last 4 Metars F.Rules Stats Wind Profile Meteogram Temp Stats Airport Information Weather charts Add Link Nearby VenuesMetar ALERT Operation Metar Decoded Social comments